sensor_id;sensor_type;location;lat;lon;timestamp;P1;durP1;ratioP1;P2;durP2;ratioP2
44642;SDS011;33930;-34.276;150.954;2022-11-03T00:01:37;1.85;;;0.30;;
44642;SDS011;33930;-34.276;150.954;2022-11-03T00:04:06;4.55;;;0.30;;
44642;SDS011;33930;-34.276;150.954;2022-11-03T00:06:35;3.03;;;0.38;;
44642;SDS011;33930;-34.276;150.954;2022-11-03T00:09:04;3.50;;;0.40;;
44642;SDS011;33930;-34.276;150.954;2022-11-03T00:11:34;2.95;;;0.75;;
44642;SDS011;33930;-34.276;150.954;2022-11-03T00:14:03;3.25;;;0.60;;
44642;SDS011;33930;-34.276;150.954;2022-11-03T00:16:30;8.32;;;0.93;;
44642;SDS011;33930;-34.276;150.954;2022-11-03T00:18:58;1.15;;;0.45;;
44642;SDS011;33930;-34.276;150.954;2022-11-03T00:21:26;2.42;;;0.60;;
44642;SDS011;33930;-34.276;150.954;2022-11-03T00:23:54;1.88;;;0.50;;
44642;SDS011;33930;-34.276;150.954;2022-11-03T00:26:22;2.45;;;0.40;;
44642;SDS011;33930;-34.276;150.954;2022-11-03T00:28:51;3.80;;;0.40;;
44642;SDS011;33930;-34.276;150.954;2022-11-03T00:31:24;3.72;;;0.95;;
44642;SDS011;33930;-34.276;150.954;2022-11-03T00:33:56;3.78;;;0.80;;
44642;SDS011;33930;-34.276;150.954;2022-11-03T00:36:25;3.42;;;0.50;;
44642;SDS011;33930;-34.276;150.954;2022-11-03T00:38:57;1.25;;;0.60;;
44642;SDS011;33930;-34.276;150.954;2022-11-03T00:41:25;3.45;;;0.25;;
44642;SDS011;33930;-34.276;150.954;2022-11-03T00:43:53;3.92;;;0.40;;
44642;SDS011;33930;-34.276;150.954;2022-11-03T00:46:22;3.58;;;0.80;;
44642;SDS011;33930;-34.276;150.954;2022-11-03T00:48:50;4.50;;;0.65;;
44642;SDS011;33930;-34.276;150.954;2022-11-03T00:51:19;1.35;;;0.38;;
44642;SDS011;33930;-34.276;150.954;2022-11-03T00:53:51;1.05;;;0.35;;
44642;SDS011;33930;-34.276;150.954;2022-11-03T00:56:21;1.83;;;0.20;;
44642;SDS011;33930;-34.276;150.954;2022-11-03T00:58:50;5.55;;;0.82;;
44642;SDS011;33930;-34.276;150.954;2022-11-03T01:01:20;3.03;;;0.38;;
44642;SDS011;33930;-34.276;150.954;2022-11-03T01:03:49;3.38;;;0.30;;
44642;SDS011;33930;-34.276;150.954;2022-11-03T01:06:37;1.50;;;0.28;;
44642;SDS011;33930;-34.276;150.954;2022-11-03T01:14:43;6.70;;;0.52;;
44642;SDS011;33930;-34.276;150.954;2022-11-03T01:17:16;2.70;;;0.30;;
44642;SDS011;33930;-34.276;150.954;2022-11-03T01:19:45;4.93;;;0.28;;
44642;SDS011;33930;-34.276;150.954;2022-11-03T01:22:13;5.78;;;0.30;;
44642;SDS011;33930;-34.276;150.954;2022-11-03T01:24:41;9.98;;;0.90;;
44642;SDS011;33930;-34.276;150.954;2022-11-03T01:27:10;10.75;;;0.70;;
44642;SDS011;33930;-34.276;150.954;2022-11-03T01:29:41;9.00;;;0.90;;
44642;SDS011;33930;-34.276;150.954;2022-11-03T01:32:09;9.27;;;1.20;;
44642;SDS011;33930;-34.276;150.954;2022-11-03T01:34:37;12.43;;;2.03;;
44642;SDS011;33930;-34.276;150.954;2022-11-03T01:37:04;3.67;;;0.40;;
44642;SDS011;33930;-34.276;150.954;2022-11-03T01:39:32;12.80;;;1.00;;
44642;SDS011;33930;-34.276;150.954;2022-11-03T01:42:02;9.88;;;1.08;;
44642;SDS011;33930;-34.276;150.954;2022-11-03T01:44:38;7.90;;;0.95;;
44642;SDS011;33930;-34.276;150.954;2022-11-03T01:47:22;5.43;;;0.65;;
44642;SDS011;33930;-34.276;150.954;2022-11-03T01:49:58;9.90;;;1.77;;
44642;SDS011;33930;-34.276;150.954;2022-11-03T01:52:33;5.93;;;0.82;;
44642;SDS011;33930;-34.276;150.954;2022-11-03T01:55:07;7.97;;;1.25;;
44642;SDS011;33930;-34.276;150.954;2022-11-03T01:57:46;9.88;;;1.20;;
44642;SDS011;33930;-34.276;150.954;2022-11-03T02:00:22;12.25;;;1.70;;
44642;SDS011;33930;-34.276;150.954;2022-11-03T02:02:49;12.27;;;1.30;;
44642;SDS011;33930;-34.276;150.954;2022-11-03T02:05:17;11.40;;;1.13;;
44642;SDS011;33930;-34.276;150.954;2022-11-03T02:10:29;16.15;;;2.08;;
44642;SDS011;33930;-34.276;150.954;2022-11-03T02:12:56;6.13;;;0.95;;
44642;SDS011;33930;-34.276;150.954;2022-11-03T02:15:24;11.55;;;1.83;;
44642;SDS011;33930;-34.276;150.954;2022-11-03T02:17:52;9.02;;;0.98;;
44642;SDS011;33930;-34.276;150.954;2022-11-03T02:20:22;2.83;;;0.40;;
44642;SDS011;33930;-34.276;150.954;2022-11-03T02:22:58;5.43;;;1.13;;
44642;SDS011;33930;-34.276;150.954;2022-11-03T02:25:30;9.18;;;1.00;;
44642;SDS011;33930;-34.276;150.954;2022-11-03T02:28:19;7.00;;;0.88;;
44642;SDS011;33930;-34.276;150.954;2022-11-03T02:36:23;10.18;;;1.38;;
44642;SDS011;33930;-34.276;150.954;2022-11-03T02:41:52;13.15;;;1.25;;
44642;SDS011;33930;-34.276;150.954;2022-11-03T02:44:23;9.75;;;1.00;;
44642;SDS011;33930;-34.276;150.954;2022-11-03T02:46:53;4.03;;;0.55;;
44642;SDS011;33930;-34.276;150.954;2022-11-03T02:49:23;17.63;;;1.65;;
44642;SDS011;33930;-34.276;150.954;2022-11-03T02:52:01;12.50;;;1.52;;
44642;SDS011;33930;-34.276;150.954;2022-11-03T02:54:40;11.70;;;1.15;;
44642;SDS011;33930;-34.276;150.954;2022-11-03T02:57:13;4.78;;;0.75;;
44642;SDS011;33930;-34.276;150.954;2022-11-03T02:59:45;1.80;;;0.20;;
44642;SDS011;33930;-34.276;150.954;2022-11-03T03:02:21;2.05;;;0.60;;
44642;SDS011;33930;-34.276;150.954;2022-11-03T03:04:57;4.18;;;0.25;;
44642;SDS011;33930;-34.276;150.954;2022-11-03T03:07:30;1.23;;;0.10;;
44642;SDS011;33930;-34.276;150.954;2022-11-03T03:10:07;3.20;;;0.40;;
44642;SDS011;33930;-34.276;150.954;2022-11-03T03:12:48;8.73;;;0.95;;
44642;SDS011;33930;-34.276;150.954;2022-11-03T03:15:19;7.13;;;0.85;;
44642;SDS011;33930;-34.276;150.954;2022-11-03T03:21:05;7.15;;;0.88;;
44642;SDS011;33930;-34.276;150.954;2022-11-03T03:23:40;5.97;;;1.33;;
44642;SDS011;33930;-34.276;150.954;2022-11-03T03:26:19;13.00;;;1.38;;
44642;SDS011;33930;-34.276;150.954;2022-11-03T03:31:43;9.73;;;1.15;;
44642;SDS011;33930;-34.276;150.954;2022-11-03T03:36:43;6.75;;;0.43;;
44642;SDS011;33930;-34.276;150.954;2022-11-03T03:39:12;6.10;;;1.00;;
44642;SDS011;33930;-34.276;150.954;2022-11-03T03:41:43;9.85;;;0.90;;
44642;SDS011;33930;-34.276;150.954;2022-11-03T03:44:12;9.13;;;0.82;;
44642;SDS011;33930;-34.276;150.954;2022-11-03T03:46:41;11.90;;;2.22;;
44642;SDS011;33930;-34.276;150.954;2022-11-03T03:49:12;8.65;;;1.88;;
44642;SDS011;33930;-34.276;150.954;2022-11-03T03:51:39;22.77;;;2.72;;
44642;SDS011;33930;-34.276;150.954;2022-11-03T03:54:08;11.15;;;1.40;;
44642;SDS011;33930;-34.276;150.954;2022-11-03T03:56:37;5.03;;;0.80;;
44642;SDS011;33930;-34.276;150.954;2022-11-03T03:59:10;11.88;;;1.42;;
44642;SDS011;33930;-34.276;150.954;2022-11-03T04:01:37;3.70;;;0.47;;
44642;SDS011;33930;-34.276;150.954;2022-11-03T04:04:05;12.70;;;1.25;;
44642;SDS011;33930;-34.276;150.954;2022-11-03T04:06:32;9.15;;;1.27;;
44642;SDS011;33930;-34.276;150.954;2022-11-03T04:08:59;4.65;;;1.48;;
44642;SDS011;33930;-34.276;150.954;2022-11-03T04:11:27;14.63;;;1.30;;
44642;SDS011;33930;-34.276;150.954;2022-11-03T04:14:12;9.68;;;1.23;;
44642;SDS011;33930;-34.276;150.954;2022-11-03T04:16:57;11.07;;;1.83;;
44642;SDS011;33930;-34.276;150.954;2022-11-03T04:19:42;7.35;;;1.73;;
44642;SDS011;33930;-34.276;150.954;2022-11-03T04:22:28;11.10;;;1.60;;
44642;SDS011;33930;-34.276;150.954;2022-11-03T04:24:57;11.18;;;1.15;;
44642;SDS011;33930;-34.276;150.954;2022-11-03T04:27:34;6.05;;;1.02;;
44642;SDS011;33930;-34.276;150.954;2022-11-03T04:30:12;12.52;;;1.80;;
44642;SDS011;33930;-34.276;150.954;2022-11-03T04:32:42;15.57;;;2.47;;
44642;SDS011;33930;-34.276;150.954;2022-11-03T04:35:18;16.52;;;1.90;;
44642;SDS011;33930;-34.276;150.954;2022-11-03T04:37:54;17.35;;;1.95;;
44642;SDS011;33930;-34.276;150.954;2022-11-03T04:40:33;16.23;;;2.38;;
44642;SDS011;33930;-34.276;150.954;2022-11-03T04:43:03;10.10;;;1.92;;
44642;SDS011;33930;-34.276;150.954;2022-11-03T04:45:35;18.10;;;2.92;;
44642;SDS011;33930;-34.276;150.954;2022-11-03T04:48:08;19.20;;;2.30;;
44642;SDS011;33930;-34.276;150.954;2022-11-03T04:50:41;19.05;;;2.53;;
44642;SDS011;33930;-34.276;150.954;2022-11-03T04:53:20;20.00;;;2.72;;
44642;SDS011;33930;-34.276;150.954;2022-11-03T04:55:48;10.60;;;1.60;;
44642;SDS011;33930;-34.276;150.954;2022-11-03T04:58:19;22.92;;;2.10;;
44642;SDS011;33930;-34.276;150.954;2022-11-03T05:00:50;16.80;;;3.17;;
44642;SDS011;33930;-34.276;150.954;2022-11-03T05:03:21;12.85;;;2.42;;
44642;SDS011;33930;-34.276;150.954;2022-11-03T05:05:50;21.15;;;2.00;;
44642;SDS011;33930;-34.276;150.954;2022-11-03T05:08:18;15.80;;;2.25;;
44642;SDS011;33930;-34.276;150.954;2022-11-03T05:10:46;19.58;;;4.38;;
44642;SDS011;33930;-34.276;150.954;2022-11-03T05:13:16;13.63;;;2.28;;
44642;SDS011;33930;-34.276;150.954;2022-11-03T05:15:53;15.60;;;1.98;;
44642;SDS011;33930;-34.276;150.954;2022-11-03T05:18:29;21.73;;;2.90;;
44642;SDS011;33930;-34.276;150.954;2022-11-03T05:21:06;19.45;;;3.20;;
44642;SDS011;33930;-34.276;150.954;2022-11-03T05:23:47;13.50;;;2.50;;
44642;SDS011;33930;-34.276;150.954;2022-11-03T05:26:19;17.52;;;2.30;;
44642;SDS011;33930;-34.276;150.954;2022-11-03T05:29:02;11.55;;;2.30;;
44642;SDS011;33930;-34.276;150.954;2022-11-03T05:31:36;19.88;;;2.65;;
44642;SDS011;33930;-34.276;150.954;2022-11-03T05:36:48;12.88;;;2.05;;
44642;SDS011;33930;-34.276;150.954;2022-11-03T05:41:51;15.27;;;2.03;;
44642;SDS011;33930;-34.276;150.954;2022-11-03T05:46:59;12.10;;;1.55;;
44642;SDS011;33930;-34.276;150.954;2022-11-03T05:49:27;15.35;;;2.53;;
44642;SDS011;33930;-34.276;150.954;2022-11-03T05:51:55;10.45;;;2.92;;
44642;SDS011;33930;-34.276;150.954;2022-11-03T05:54:23;17.65;;;3.15;;
44642;SDS011;33930;-34.276;150.954;2022-11-03T05:56:54;13.05;;;2.22;;
44642;SDS011;33930;-34.276;150.954;2022-11-03T05:59:23;20.50;;;3.33;;
44642;SDS011;33930;-34.276;150.954;2022-11-03T06:01:53;17.58;;;2.92;;
44642;SDS011;33930;-34.276;150.954;2022-11-03T06:04:32;22.23;;;3.35;;
44642;SDS011;33930;-34.276;150.954;2022-11-03T06:09:52;12.15;;;1.83;;
44642;SDS011;33930;-34.276;150.954;2022-11-03T06:12:19;13.20;;;2.28;;
44642;SDS011;33930;-34.276;150.954;2022-11-03T06:14:49;17.15;;;2.20;;
44642;SDS011;33930;-34.276;150.954;2022-11-03T06:17:23;18.13;;;3.20;;
44642;SDS011;33930;-34.276;150.954;2022-11-03T06:19:56;17.10;;;3.22;;
44642;SDS011;33930;-34.276;150.954;2022-11-03T06:22:26;14.55;;;2.20;;
44642;SDS011;33930;-34.276;150.954;2022-11-03T06:24:58;15.43;;;2.53;;
44642;SDS011;33930;-34.276;150.954;2022-11-03T06:27:35;20.15;;;3.78;;
44642;SDS011;33930;-34.276;150.954;2022-11-03T06:30:25;25.65;;;2.45;;
44642;SDS011;33930;-34.276;150.954;2022-11-03T06:32:52;17.60;;;2.55;;
44642;SDS011;33930;-34.276;150.954;2022-11-03T06:35:29;17.55;;;2.70;;
44642;SDS011;33930;-34.276;150.954;2022-11-03T06:37:56;17.30;;;3.15;;
44642;SDS011;33930;-34.276;150.954;2022-11-03T06:40:34;19.52;;;3.83;;
44642;SDS011;33930;-34.276;150.954;2022-11-03T06:43:12;18.40;;;2.72;;
44642;SDS011;33930;-34.276;150.954;2022-11-03T06:45:49;21.50;;;3.00;;
44642;SDS011;33930;-34.276;150.954;2022-11-03T06:48:25;18.55;;;3.17;;
44642;SDS011;33930;-34.276;150.954;2022-11-03T06:50:54;28.98;;;3.90;;
44642;SDS011;33930;-34.276;150.954;2022-11-03T06:53:25;25.27;;;5.22;;
44642;SDS011;33930;-34.276;150.954;2022-11-03T06:55:56;19.95;;;3.20;;
44642;SDS011;33930;-34.276;150.954;2022-11-03T06:58:26;15.50;;;2.92;;
44642;SDS011;33930;-34.276;150.954;2022-11-03T07:00:54;18.75;;;2.58;;
44642;SDS011;33930;-34.276;150.954;2022-11-03T07:03:25;12.95;;;3.15;;
44642;SDS011;33930;-34.276;150.954;2022-11-03T07:06:21;21.55;;;3.80;;
44642;SDS011;33930;-34.276;150.954;2022-11-03T07:08:52;19.75;;;3.13;;
44642;SDS011;33930;-34.276;150.954;2022-11-03T07:11:30;14.02;;;3.28;;
44642;SDS011;33930;-34.276;150.954;2022-11-03T07:14:12;15.98;;;2.83;;
44642;SDS011;33930;-34.276;150.954;2022-11-03T07:16:48;11.90;;;2.45;;
44642;SDS011;33930;-34.276;150.954;2022-11-03T07:19:33;12.52;;;2.80;;
44642;SDS011;33930;-34.276;150.954;2022-11-03T07:22:03;14.38;;;2.15;;
44642;SDS011;33930;-34.276;150.954;2022-11-03T07:24:41;10.73;;;1.80;;
44642;SDS011;33930;-34.276;150.954;2022-11-03T07:27:22;13.23;;;2.00;;
44642;SDS011;33930;-34.276;150.954;2022-11-03T07:29:58;9.18;;;1.90;;
44642;SDS011;33930;-34.276;150.954;2022-11-03T07:32:47;10.98;;;2.75;;
44642;SDS011;33930;-34.276;150.954;2022-11-03T07:38:17;12.65;;;2.20;;
44642;SDS011;33930;-34.276;150.954;2022-11-03T07:40:47;20.42;;;2.45;;
44642;SDS011;33930;-34.276;150.954;2022-11-03T07:43:22;15.07;;;2.38;;
44642;SDS011;33930;-34.276;150.954;2022-11-03T07:45:57;10.88;;;1.98;;
44642;SDS011;33930;-34.276;150.954;2022-11-03T07:51:31;10.25;;;2.03;;
44642;SDS011;33930;-34.276;150.954;2022-11-03T07:56:55;15.70;;;2.53;;
44642;SDS011;33930;-34.276;150.954;2022-11-03T07:59:26;19.83;;;3.72;;
44642;SDS011;33930;-34.276;150.954;2022-11-03T08:01:57;10.40;;;2.45;;
44642;SDS011;33930;-34.276;150.954;2022-11-03T08:04:28;10.43;;;2.15;;
44642;SDS011;33930;-34.276;150.954;2022-11-03T08:06:58;12.13;;;2.33;;
44642;SDS011;33930;-34.276;150.954;2022-11-03T08:09:25;13.98;;;2.53;;
44642;SDS011;33930;-34.276;150.954;2022-11-03T08:11:52;14.13;;;2.17;;
44642;SDS011;33930;-34.276;150.954;2022-11-03T08:14:20;11.50;;;2.67;;
44642;SDS011;33930;-34.276;150.954;2022-11-03T08:16:47;16.30;;;2.72;;
44642;SDS011;33930;-34.276;150.954;2022-11-03T08:19:14;13.82;;;3.13;;
44642;SDS011;33930;-34.276;150.954;2022-11-03T08:21:42;14.57;;;2.13;;
44642;SDS011;33930;-34.276;150.954;2022-11-03T08:24:09;16.38;;;3.15;;
44642;SDS011;33930;-34.276;150.954;2022-11-03T08:26:36;14.23;;;2.00;;
44642;SDS011;33930;-34.276;150.954;2022-11-03T08:29:03;12.15;;;2.00;;
44642;SDS011;33930;-34.276;150.954;2022-11-03T08:31:31;10.85;;;2.20;;
44642;SDS011;33930;-34.276;150.954;2022-11-03T08:33:58;7.47;;;1.75;;
44642;SDS011;33930;-34.276;150.954;2022-11-03T08:36:25;10.93;;;2.00;;
44642;SDS011;33930;-34.276;150.954;2022-11-03T08:38:53;6.85;;;1.50;;
44642;SDS011;33930;-34.276;150.954;2022-11-03T08:41:20;9.18;;;1.88;;
44642;SDS011;33930;-34.276;150.954;2022-11-03T08:43:47;11.00;;;2.30;;
44642;SDS011;33930;-34.276;150.954;2022-11-03T08:46:14;7.75;;;1.42;;
44642;SDS011;33930;-34.276;150.954;2022-11-03T08:48:42;4.63;;;1.23;;
44642;SDS011;33930;-34.276;150.954;2022-11-03T08:51:09;11.98;;;1.52;;
44642;SDS011;33930;-34.276;150.954;2022-11-03T08:53:38;7.97;;;1.58;;
44642;SDS011;33930;-34.276;150.954;2022-11-03T08:56:09;4.65;;;1.30;;
44642;SDS011;33930;-34.276;150.954;2022-11-03T08:58:37;10.07;;;1.48;;
44642;SDS011;33930;-34.276;150.954;2022-11-03T09:01:05;9.27;;;1.70;;
44642;SDS011;33930;-34.276;150.954;2022-11-03T09:03:32;12.80;;;1.95;;
44642;SDS011;33930;-34.276;150.954;2022-11-03T09:06:00;17.35;;;2.63;;
44642;SDS011;33930;-34.276;150.954;2022-11-03T09:08:27;10.57;;;1.65;;
44642;SDS011;33930;-34.276;150.954;2022-11-03T09:10:54;8.60;;;1.52;;
44642;SDS011;33930;-34.276;150.954;2022-11-03T09:13:22;9.82;;;1.55;;
44642;SDS011;33930;-34.276;150.954;2022-11-03T09:15:49;10.18;;;1.88;;
44642;SDS011;33930;-34.276;150.954;2022-11-03T09:18:17;8.98;;;1.38;;
44642;SDS011;33930;-34.276;150.954;2022-11-03T09:20:44;10.77;;;1.80;;
44642;SDS011;33930;-34.276;150.954;2022-11-03T09:23:12;14.65;;;1.80;;
44642;SDS011;33930;-34.276;150.954;2022-11-03T09:25:39;9.70;;;1.63;;
44642;SDS011;33930;-34.276;150.954;2022-11-03T09:28:06;6.55;;;1.55;;
44642;SDS011;33930;-34.276;150.954;2022-11-03T09:30:33;12.15;;;1.80;;
44642;SDS011;33930;-34.276;150.954;2022-11-03T09:33:01;7.43;;;1.73;;
44642;SDS011;33930;-34.276;150.954;2022-11-03T09:35:28;8.05;;;2.15;;
44642;SDS011;33930;-34.276;150.954;2022-11-03T09:37:55;8.88;;;2.75;;
44642;SDS011;33930;-34.276;150.954;2022-11-03T09:40:23;15.07;;;2.58;;
44642;SDS011;33930;-34.276;150.954;2022-11-03T09:42:50;15.90;;;2.42;;
44642;SDS011;33930;-34.276;150.954;2022-11-03T09:45:17;8.88;;;1.92;;
44642;SDS011;33930;-34.276;150.954;2022-11-03T09:47:45;7.97;;;2.38;;
44642;SDS011;33930;-34.276;150.954;2022-11-03T09:50:13;9.27;;;1.70;;
44642;SDS011;33930;-34.276;150.954;2022-11-03T09:52:44;9.35;;;2.30;;
44642;SDS011;33930;-34.276;150.954;2022-11-03T09:55:14;16.20;;;2.10;;
44642;SDS011;33930;-34.276;150.954;2022-11-03T09:57:44;12.48;;;2.00;;
44642;SDS011;33930;-34.276;150.954;2022-11-03T10:00:14;8.27;;;1.70;;
44642;SDS011;33930;-34.276;150.954;2022-11-03T10:02:44;9.32;;;1.75;;
44642;SDS011;33930;-34.276;150.954;2022-11-03T10:05:18;11.15;;;1.98;;
44642;SDS011;33930;-34.276;150.954;2022-11-03T10:07:51;11.70;;;1.70;;
44642;SDS011;33930;-34.276;150.954;2022-11-03T10:10:22;18.33;;;2.92;;
44642;SDS011;33930;-34.276;150.954;2022-11-03T10:12:50;10.45;;;2.33;;
44642;SDS011;33930;-34.276;150.954;2022-11-03T10:15:20;10.15;;;1.70;;
44642;SDS011;33930;-34.276;150.954;2022-11-03T10:17:48;9.70;;;1.45;;
44642;SDS011;33930;-34.276;150.954;2022-11-03T10:20:17;7.53;;;1.83;;
44642;SDS011;33930;-34.276;150.954;2022-11-03T10:22:46;8.20;;;1.63;;
44642;SDS011;33930;-34.276;150.954;2022-11-03T10:25:26;7.95;;;1.70;;
44642;SDS011;33930;-34.276;150.954;2022-11-03T10:30:58;6.75;;;1.48;;
44642;SDS011;33930;-34.276;150.954;2022-11-03T10:33:35;7.60;;;1.20;;
44642;SDS011;33930;-34.276;150.954;2022-11-03T10:38:41;5.90;;;0.88;;
44642;SDS011;33930;-34.276;150.954;2022-11-03T10:41:10;9.13;;;2.22;;
44642;SDS011;33930;-34.276;150.954;2022-11-03T10:43:39;5.10;;;1.00;;
44642;SDS011;33930;-34.276;150.954;2022-11-03T10:46:15;6.60;;;1.42;;
44642;SDS011;33930;-34.276;150.954;2022-11-03T10:51:46;12.07;;;1.10;;
44642;SDS011;33930;-34.276;150.954;2022-11-03T10:54:19;5.25;;;0.95;;
44642;SDS011;33930;-34.276;150.954;2022-11-03T10:56:48;9.30;;;1.50;;
44642;SDS011;33930;-34.276;150.954;2022-11-03T10:59:17;13.93;;;1.95;;
44642;SDS011;33930;-34.276;150.954;2022-11-03T11:01:59;13.02;;;2.13;;
44642;SDS011;33930;-34.276;150.954;2022-11-03T11:04:27;10.70;;;1.60;;
44642;SDS011;33930;-34.276;150.954;2022-11-03T11:06:54;6.95;;;1.63;;
44642;SDS011;33930;-34.276;150.954;2022-11-03T11:09:22;7.75;;;1.27;;
44642;SDS011;33930;-34.276;150.954;2022-11-03T11:12:14;13.85;;;2.60;;
44642;SDS011;33930;-34.276;150.954;2022-11-03T11:14:54;12.32;;;2.58;;
44642;SDS011;33930;-34.276;150.954;2022-11-03T11:17:41;7.47;;;1.88;;
44642;SDS011;33930;-34.276;150.954;2022-11-03T11:20:18;6.38;;;1.13;;
44642;SDS011;33930;-34.276;150.954;2022-11-03T11:26:05;5.68;;;1.60;;
44642;SDS011;33930;-34.276;150.954;2022-11-03T11:28:32;7.05;;;1.33;;
44642;SDS011;33930;-34.276;150.954;2022-11-03T11:31:00;9.07;;;1.50;;
44642;SDS011;33930;-34.276;150.954;2022-11-03T11:33:29;9.13;;;1.63;;
44642;SDS011;33930;-34.276;150.954;2022-11-03T11:38:44;7.38;;;1.50;;
44642;SDS011;33930;-34.276;150.954;2022-11-03T11:41:20;10.00;;;1.77;;
44642;SDS011;33930;-34.276;150.954;2022-11-03T11:57:51;4.63;;;1.40;;
44642;SDS011;33930;-34.276;150.954;2022-11-03T12:00:36;7.18;;;0.93;;
44642;SDS011;33930;-34.276;150.954;2022-11-03T12:03:14;5.68;;;1.25;;
44642;SDS011;33930;-34.276;150.954;2022-11-03T12:05:42;5.85;;;1.02;;
44642;SDS011;33930;-34.276;150.954;2022-11-03T12:08:24;3.83;;;0.50;;
44642;SDS011;33930;-34.276;150.954;2022-11-03T12:10:55;5.25;;;0.88;;
44642;SDS011;33930;-34.276;150.954;2022-11-03T12:16:28;3.35;;;0.73;;
44642;SDS011;33930;-34.276;150.954;2022-11-03T12:22:05;2.90;;;0.93;;
44642;SDS011;33930;-34.276;150.954;2022-11-03T12:29:51;4.75;;;1.02;;
44642;SDS011;33930;-34.276;150.954;2022-11-03T12:32:19;7.22;;;1.05;;
44642;SDS011;33930;-34.276;150.954;2022-11-03T12:34:47;6.32;;;0.93;;
44642;SDS011;33930;-34.276;150.954;2022-11-03T12:37:14;7.15;;;2.75;;
44642;SDS011;33930;-34.276;150.954;2022-11-03T12:39:42;6.63;;;1.30;;
44642;SDS011;33930;-34.276;150.954;2022-11-03T12:42:09;8.82;;;1.13;;
44642;SDS011;33930;-34.276;150.954;2022-11-03T12:44:36;7.95;;;1.60;;
44642;SDS011;33930;-34.276;150.954;2022-11-03T12:47:03;9.48;;;1.17;;
44642;SDS011;33930;-34.276;150.954;2022-11-03T12:49:31;8.35;;;1.30;;
44642;SDS011;33930;-34.276;150.954;2022-11-03T12:51:58;3.95;;;1.13;;
44642;SDS011;33930;-34.276;150.954;2022-11-03T12:54:31;7.72;;;1.63;;
44642;SDS011;33930;-34.276;150.954;2022-11-03T12:56:58;5.18;;;1.65;;
44642;SDS011;33930;-34.276;150.954;2022-11-03T12:59:26;8.90;;;1.33;;
44642;SDS011;33930;-34.276;150.954;2022-11-03T13:01:53;10.32;;;2.45;;
44642;SDS011;33930;-34.276;150.954;2022-11-03T13:04:21;8.13;;;2.22;;
44642;SDS011;33930;-34.276;150.954;2022-11-03T13:06:48;6.60;;;1.13;;
44642;SDS011;33930;-34.276;150.954;2022-11-03T13:09:15;5.57;;;1.52;;
44642;SDS011;33930;-34.276;150.954;2022-11-03T13:11:42;7.95;;;1.60;;
44642;SDS011;33930;-34.276;150.954;2022-11-03T13:14:27;4.93;;;1.25;;
44642;SDS011;33930;-34.276;150.954;2022-11-03T13:16:55;8.13;;;1.73;;
44642;SDS011;33930;-34.276;150.954;2022-11-03T13:19:22;12.45;;;1.42;;
44642;SDS011;33930;-34.276;150.954;2022-11-03T13:21:49;6.55;;;1.50;;
44642;SDS011;33930;-34.276;150.954;2022-11-03T13:24:17;6.53;;;1.52;;
44642;SDS011;33930;-34.276;150.954;2022-11-03T13:26:44;9.27;;;1.33;;
44642;SDS011;33930;-34.276;150.954;2022-11-03T13:29:12;4.97;;;1.17;;
44642;SDS011;33930;-34.276;150.954;2022-11-03T13:48:07;5.88;;;1.15;;
44642;SDS011;33930;-34.276;150.954;2022-11-03T13:50:35;4.68;;;1.00;;
44642;SDS011;33930;-34.276;150.954;2022-11-03T13:53:02;6.65;;;1.13;;
44642;SDS011;33930;-34.276;150.954;2022-11-03T13:55:29;7.50;;;1.50;;
44642;SDS011;33930;-34.276;150.954;2022-11-03T13:57:56;9.63;;;1.20;;
44642;SDS011;33930;-34.276;150.954;2022-11-03T14:00:24;4.93;;;0.93;;
44642;SDS011;33930;-34.276;150.954;2022-11-03T14:02:51;4.45;;;1.70;;
44642;SDS011;33930;-34.276;150.954;2022-11-03T14:05:18;8.23;;;1.67;;
44642;SDS011;33930;-34.276;150.954;2022-11-03T14:07:45;9.80;;;1.20;;
44642;SDS011;33930;-34.276;150.954;2022-11-03T14:10:13;3.40;;;1.00;;
44642;SDS011;33930;-34.276;150.954;2022-11-03T14:12:40;3.42;;;0.80;;
44642;SDS011;33930;-34.276;150.954;2022-11-03T14:15:09;3.13;;;0.75;;
44642;SDS011;33930;-34.276;150.954;2022-11-03T14:17:37;5.35;;;0.82;;
44642;SDS011;33930;-34.276;150.954;2022-11-03T14:20:05;5.53;;;0.70;;
44642;SDS011;33930;-34.276;150.954;2022-11-03T14:22:37;4.85;;;0.70;;
44642;SDS011;33930;-34.276;150.954;2022-11-03T14:25:05;9.45;;;1.35;;
44642;SDS011;33930;-34.276;150.954;2022-11-03T14:27:33;4.57;;;1.00;;
44642;SDS011;33930;-34.276;150.954;2022-11-03T14:30:00;6.75;;;1.77;;
44642;SDS011;33930;-34.276;150.954;2022-11-03T14:32:28;7.25;;;1.30;;
44642;SDS011;33930;-34.276;150.954;2022-11-03T14:34:55;9.23;;;1.85;;
44642;SDS011;33930;-34.276;150.954;2022-11-03T14:37:23;10.85;;;1.98;;
44642;SDS011;33930;-34.276;150.954;2022-11-03T14:39:50;5.95;;;0.90;;
44642;SDS011;33930;-34.276;150.954;2022-11-03T14:42:17;3.88;;;1.45;;
44642;SDS011;33930;-34.276;150.954;2022-11-03T14:44:46;6.53;;;0.70;;
44642;SDS011;33930;-34.276;150.954;2022-11-03T14:47:17;4.15;;;1.00;;
44642;SDS011;33930;-34.276;150.954;2022-11-03T14:49:47;7.00;;;1.05;;
44642;SDS011;33930;-34.276;150.954;2022-11-03T14:52:15;5.40;;;1.20;;
44642;SDS011;33930;-34.276;150.954;2022-11-03T14:54:43;5.07;;;0.90;;
44642;SDS011;33930;-34.276;150.954;2022-11-03T14:57:10;7.97;;;1.10;;
44642;SDS011;33930;-34.276;150.954;2022-11-03T14:59:37;6.65;;;0.88;;
44642;SDS011;33930;-34.276;150.954;2022-11-03T15:02:05;3.33;;;0.82;;
44642;SDS011;33930;-34.276;150.954;2022-11-03T15:04:32;8.63;;;1.25;;
44642;SDS011;33930;-34.276;150.954;2022-11-03T15:07:00;6.18;;;0.77;;
44642;SDS011;33930;-34.276;150.954;2022-11-03T15:09:27;4.88;;;1.02;;
44642;SDS011;33930;-34.276;150.954;2022-11-03T15:11:54;14.07;;;1.48;;
44642;SDS011;33930;-34.276;150.954;2022-11-03T15:14:22;3.75;;;1.00;;
44642;SDS011;33930;-34.276;150.954;2022-11-03T15:16:49;6.60;;;1.40;;
44642;SDS011;33930;-34.276;150.954;2022-11-03T15:19:16;5.10;;;1.05;;
44642;SDS011;33930;-34.276;150.954;2022-11-03T15:21:43;6.25;;;1.17;;
44642;SDS011;33930;-34.276;150.954;2022-11-03T15:24:11;5.70;;;1.15;;
44642;SDS011;33930;-34.276;150.954;2022-11-03T15:26:38;7.05;;;1.27;;
44642;SDS011;33930;-34.276;150.954;2022-11-03T15:29:05;3.58;;;1.00;;
44642;SDS011;33930;-34.276;150.954;2022-11-03T15:31:32;4.43;;;0.98;;
44642;SDS011;33930;-34.276;150.954;2022-11-03T15:34:00;6.20;;;1.23;;
44642;SDS011;33930;-34.276;150.954;2022-11-03T15:36:27;7.10;;;0.90;;
44642;SDS011;33930;-34.276;150.954;2022-11-03T15:38:55;5.38;;;1.00;;
44642;SDS011;33930;-34.276;150.954;2022-11-03T15:41:22;6.53;;;1.23;;
44642;SDS011;33930;-34.276;150.954;2022-11-03T15:43:49;4.93;;;1.67;;
44642;SDS011;33930;-34.276;150.954;2022-11-03T15:46:17;6.68;;;1.70;;
44642;SDS011;33930;-34.276;150.954;2022-11-03T15:48:44;5.32;;;0.85;;
44642;SDS011;33930;-34.276;150.954;2022-11-03T15:51:13;5.55;;;0.90;;
44642;SDS011;33930;-34.276;150.954;2022-11-03T15:53:41;5.30;;;1.02;;
44642;SDS011;33930;-34.276;150.954;2022-11-03T15:56:08;5.32;;;1.00;;
44642;SDS011;33930;-34.276;150.954;2022-11-03T15:58:35;6.38;;;1.08;;
44642;SDS011;33930;-34.276;150.954;2022-11-03T16:01:03;4.13;;;0.85;;
44642;SDS011;33930;-34.276;150.954;2022-11-03T16:03:31;4.18;;;0.73;;
44642;SDS011;33930;-34.276;150.954;2022-11-03T16:05:58;1.63;;;0.90;;